CST,Max TemperatureF,Mean TemperatureF,Min TemperatureF,Max Dew PointF,MeanDew PointF,Min DewpointF,Max Humidity, Mean Humidity, Min Humidity, Max Sea Level PressureIn, Mean Sea Level PressureIn, Min Sea Level PressureIn, Max VisibilityMiles, Mean VisibilityMiles, Min VisibilityMiles, Max Wind SpeedMPH, Mean Wind SpeedMPH, Max Gust SpeedMPH,PrecipitationIn, CloudCover, Events, WindDirDegrees
2013-2-1,32,23,14,23,10,3,81,58,42,30.47,30.34,30.18,10,10,10,8,4,,0.08,0,,103
2013-2-2,55,40,25,35,28,20,82,65,45,30.24,30.18,30.14,10,10,5,13,4,17,0.00,1,,257
2013-2-3,50,42,35,30,26,20,75,52,32,30.29,30.15,29.91,10,10,10,14,7,18,0.00,0,,258
2013-2-4,58,46,33,38,32,26,90,52,37,29.98,29.88,29.80,10,10,10,15,9,20,0.00,0,,305
2013-2-5,60,44,28,39,33,29,100,73,33,30.07,29.99,29.92,10,9,4,10,2,9,0.00,0,,310
2013-2-6,65,51,37,41,35,30,76,57,38,30.09,30.00,29.91,10,10,10,16,7,21,0.00,2,,145
2013-2-7,53,46,38,54,46,37,100,90,57,30.16,29.95,29.86,10,7,2,15,7,22,0.53,6,Thunderstorm,19
2013-2-8,45,38,32,38,33,30,100,82,59,30.32,30.25,30.16,10,8,4,12,8,16,0.00,4,,63
2013-2-9,49,42,35,42,35,32,100,83,51,30.19,30.03,29.77,10,9,4,17,9,22,0.09,2,,143
2013-2-10,55,48,40,53,36,27,100,63,39,30.02,29.72,29.59,10,9,3,28,14,37,0.07,3,Thunderstorm,236
2013-2-11,50,40,30,32,28,25,100,68,43,30.20,30.13,30.02,10,10,10,8,5,,0.00,0,,295
2013-2-12,40,35,30,36,29,24,100,77,63,30.16,30.06,29.97,10,8,2,12,3,18,0.02,2,,32
2013-2-13,50,41,32,40,35,31,100,79,57,29.99,29.94,29.88,10,7,1,16,6,22,0.03,3,,239
2013-2-14,53,44,35,35,32,28,86,64,43,30.18,30.03,29.90,10,10,10,12,7,20,0.00,0,,311
2013-2-15,41,34,26,28,20,13,81,58,34,30.36,30.29,30.18,10,10,3,17,9,24,0.00,1,,337
2013-2-16,37,31,25,31,24,18,100,73,50,30.33,30.22,30.09,10,10,1,14,6,20,0.00,6,,232
2013-2-17,63,48,32,33,26,17,61,44,29,30.08,29.92,29.73,10,10,10,18,10,25,0.00,0,,193
2013-2-18,59,46,32,51,37,22,77,61,38,30.12,29.75,29.57,10,10,7,33,20,43,0.00,3,Thunderstorm,258
2013-2-19,41,34,28,25,18,12,83,56,31,30.32,30.24,30.14,10,10,10,16,6,22,0.00,0,,337
2013-2-20,35,31,27,20,13,10,61,46,39,30.33,30.22,30.09,10,10,5,15,9,20,0.00,3,,87
2013-2-21,35,32,30,36,30,21,100,93,64,30.09,29.83,29.70,10,5,0,17,10,23,0.00,8,Thunderstorm,115
2013-2-22,33,26,20,34,23,20,100,89,72,30.12,30.02,29.83,10,10,10,10,5,,0.00,3,,274
2013-2-23,37,28,18,29,22,18,100,82,59,30.10,30.02,29.96,10,10,5,7,1,,0.00,0,,214
2013-2-24,55,40,25,38,31,23,100,70,50,29.99,29.92,29.83,10,10,10,14,4,20,0.00,0,,115
2013-2-25,40,38,35,36,33,29,100,84,69,29.90,29.72,29.51,10,8,1,26,11,39,0.00,5,,59
2013-2-26,35,35,35,36,34,32,100,95,87,29.87,29.62,29.45,10,7,1,20,11,28,0.00,7,,343
2013-2-27,37,34,32,36,31,26,100,85,69,30.07,29.97,29.85,10,7,1,15,7,22,0.00,4,,307
2013-2-28,35,34,32,29,28,26,86,79,72,30.21,30.15,30.06,10,9,7,13,8,20,0.00,7,,334